»·PEaware :: N179TD KSNA-KBUR

N179TD :: KSNA-KBUR

FLIGHT INFORMATION

Flight Status: Arrived
Operator: Privately registered:
United States
More flights under this callsign
Pilot: Terry D. (17346)
Aircraft: BEECH AIRCRAFT BARON
(BE58)
More flights by this aircraft type
Origin: KSNA John Wayne-Orange Co
United States
Destination: KBUR Bob Hope-Burbank
United States
More flights between these airports :: More routes between these airports
Route: SLI V23 POPPR SMO SILEX
File this flight plan on PilotEdge
Remarks: TEC Route CSTN1, Own weather for ILS RWY 8, I-3
Altitude:
(Current/Filed)
4,000ft
Speed:
(Current/Filed)
175kts
Departed: 06-Dec-17 09:43 PM
Arrived: 06-Dec-17 10:16 PM
Distance/Time
Traveled:
40nm/0:33
Distance/Time
To Go:
Arrived

Flight Plot

Page will automatically refresh every two minutes.

Flight plan parsing failed; only flown route is shown


Map Options




Map Legend


Flown Route
Filed Route
Departure Airport
Arrival Airport
Navaid (VOR, NDB)
Fix

Horizontal Profiles

Position Reports

Time Latitude Longitude Heading Altitude Ground
Speed
06-Dec-17 21:20 33.676268 -117.870858 212 57ft 0kts
06-Dec-17 21:21 33.676268 -117.870858 212 57ft 0kts
06-Dec-17 21:22 33.676268 -117.870858 212 57ft 0kts
06-Dec-17 21:23 33.676268 -117.870858 212 57ft 0kts
06-Dec-17 21:24 33.676268 -117.870858 212 57ft 0kts
06-Dec-17 21:25 33.676268 -117.870858 212 57ft 0kts
06-Dec-17 21:26 33.676268 -117.870858 212 57ft 0kts
06-Dec-17 21:27 33.676268 -117.870858 212 57ft 0kts
06-Dec-17 21:28 33.676268 -117.870858 212 57ft 0kts
06-Dec-17 21:29 33.676268 -117.870858 212 57ft 0kts
06-Dec-17 21:30 33.676268 -117.870858 212 57ft 0kts
06-Dec-17 21:31 33.676268 -117.870858 212 57ft 0kts
06-Dec-17 21:32 33.676268 -117.870858 212 57ft 0kts
06-Dec-17 21:33 33.676268 -117.870858 212 57ft 0kts
06-Dec-17 21:34 33.676268 -117.870858 212 57ft 0kts
06-Dec-17 21:35 33.676268 -117.870858 212 57ft 0kts
06-Dec-17 21:36 33.676268 -117.870858 212 57ft 0kts
06-Dec-17 21:37 33.676268 -117.870858 212 57ft 0kts
06-Dec-17 21:38 33.676268 -117.870858 212 57ft 0kts
06-Dec-17 21:39 33.676268 -117.870858 212 57ft 0kts
06-Dec-17 21:40 33.676268 -117.870858 212 57ft 0kts
06-Dec-17 21:41 33.676268 -117.870858 212 57ft 0kts
06-Dec-17 21:42 33.676268 -117.870858 212 57ft 0kts
06-Dec-17 21:43 33.673073 -117.871947 203 57ft 25kts
06-Dec-17 21:44 33.668290 -117.874610 122 57ft 2kts
06-Dec-17 21:45 33.668289 -117.874607 121 57ft 0kts
06-Dec-17 21:46 33.668289 -117.874607 121 57ft 0kts
06-Dec-17 21:47 33.668289 -117.874607 121 57ft 0kts
06-Dec-17 21:48 33.670364 -117.872122 27 57ft 67kts
06-Dec-17 21:49 33.689870 -117.860936 10 939ft 115kts
06-Dec-17 21:50 33.693841 -117.894210 246 2823ft 127kts
06-Dec-17 21:51 33.705920 -117.936864 305 3891ft 149kts
06-Dec-17 21:52 33.730788 -117.985642 317 3969ft 179kts
06-Dec-17 21:53 33.761250 -118.030520 315 4124ft 179kts
06-Dec-17 21:54 33.786304 -118.070820 296 4053ft 186kts
06-Dec-17 21:55 33.798020 -118.121908 289 3994ft 195kts
06-Dec-17 21:56 33.809096 -118.169151 291 4066ft 187kts
06-Dec-17 21:57 33.819714 -118.219171 293 4051ft 187kts
06-Dec-17 21:58 33.833489 -118.269298 292 3959ft 196kts
06-Dec-17 21:59 33.858950 -118.314935 337 3912ft 178kts
06-Dec-17 22:00 33.893472 -118.334886 342 3872ft 180kts
06-Dec-17 22:01 33.922617 -118.368131 313 3880ft 189kts
06-Dec-17 22:02 33.951937 -118.404613 329 3907ft 180kts
06-Dec-17 22:03 33.987216 -118.434039 329 3992ft 178kts
06-Dec-17 22:04 34.025372 -118.470585 333 4059ft 176kts
06-Dec-17 22:05 34.065624 -118.505006 330 4092ft 179kts
06-Dec-17 22:07 34.105752 -118.540280 318 3993ft 186kts
06-Dec-17 22:08 34.124188 -118.599609 291 4058ft 193kts
06-Dec-17 22:09 34.141044 -118.659758 306 3998ft 190kts
06-Dec-17 22:10 34.183284 -118.679956 3 3895ft 157kts
06-Dec-17 22:11 34.200073 -118.643740 87 3684ft 129kts
06-Dec-17 22:12 34.197228 -118.609283 87 2929ft 72kts
06-Dec-17 22:13 34.198276 -118.583484 75 2923ft 78kts
06-Dec-17 22:14 34.199252 -118.555969 83 3170ft 90kts
06-Dec-17 22:15 34.198260 -118.523130 84 3002ft 103kts
06-Dec-17 22:16 34.198424 -118.492701 82 2870ft 87kts
06-Dec-17 22:16 34.198119 -118.470899 83 2392ft 90kts
06-Dec-17 22:18 34.198617 -118.441131 82 1892ft 81kts
06-Dec-17 22:18 34.198287 -118.421618 84 1607ft 79kts
06-Dec-17 22:19 34.198338 -118.398900 81 1305ft 76kts
06-Dec-17 22:21 34.197913 -118.371396 85 814ft 80kts
06-Dec-17 22:21 34.197901 -118.360364 71 713ft 3kts
06-Dec-17 22:23 34.198647 -118.360400 0 715ft 6kts
06-Dec-17 22:23 34.199833 -118.359860 69 718ft 0kts
06-Dec-17 22:24 34.200202 -118.359247 52 719ft 0kts
06-Dec-17 22:25 34.200202 -118.359247 52 719ft 0kts
06-Dec-17 22:26 34.200202 -118.359247 52 719ft 0kts
06-Dec-17 22:27 34.200202 -118.359247 52 719ft 0kts

Navigation Log

Ident Type
Flight plan parsing failed, navigation log unavailable